createdAt,value
2022-12-23T00:01:16.753Z,16.90
2022-12-23T00:03:49.312Z,18.50
2022-12-23T00:06:22.808Z,20.00
2022-12-23T00:08:58.884Z,30.60
2022-12-23T00:11:31.836Z,18.70
2022-12-23T00:14:22.277Z,24.40
2022-12-23T00:16:54.756Z,16.30
2022-12-23T00:19:27.530Z,17.80
2022-12-23T00:21:59.877Z,24.10
2022-12-23T00:24:32.224Z,21.60
2022-12-23T00:27:04.547Z,19.70
2022-12-23T00:29:38.427Z,20.40
2022-12-23T00:32:10.772Z,64.10
2022-12-23T00:34:43.173Z,106.60
2022-12-23T00:37:15.522Z,50.10
2022-12-23T00:40:06.964Z,33.70
2022-12-23T00:42:54.928Z,34.80
2022-12-23T00:45:27.565Z,23.80
2022-12-23T00:48:17.416Z,20.30
2022-12-23T00:50:52.353Z,23.00
2022-12-23T00:53:24.802Z,27.90
2022-12-23T00:55:57.385Z,273.40
2022-12-23T00:58:29.752Z,371.70
2022-12-23T01:01:20.067Z,225.70
2022-12-23T01:04:10.314Z,108.30
2022-12-23T01:06:42.690Z,146.60
2022-12-23T01:09:15.355Z,68.10
2022-12-23T01:11:47.744Z,48.00
2022-12-23T01:14:20.272Z,56.70
2022-12-23T01:16:52.661Z,51.20
2022-12-23T01:19:25.141Z,23.80
2022-12-23T01:21:57.799Z,24.50
2022-12-23T01:24:32.620Z,19.30
2022-12-23T01:27:04.986Z,18.40
2022-12-23T01:29:37.563Z,16.00
2022-12-23T01:32:10.013Z,21.80
2022-12-23T01:34:42.515Z,17.50
2022-12-23T01:37:14.923Z,16.50
2022-12-23T01:39:47.377Z,18.00
2022-12-23T01:42:39.544Z,21.20
2022-12-23T01:45:18.622Z,15.80
2022-12-23T01:47:57.543Z,18.90
2022-12-23T01:50:34.118Z,17.30
2022-12-23T01:53:09.680Z,23.40
2022-12-23T01:55:46.160Z,16.90
2022-12-23T01:58:22.063Z,21.30
2022-12-23T02:01:13.146Z,17.50
2022-12-23T02:03:46.992Z,18.20
2022-12-23T02:06:43.219Z,13.60
2022-12-23T02:09:21.011Z,26.80
2022-12-23T02:12:28.565Z,24.10
2022-12-23T02:15:31.354Z,21.70
2022-12-23T02:18:18.315Z,20.10
2022-12-23T02:21:12.192Z,22.30
2022-12-23T02:24:23.245Z,18.40
2022-12-23T02:27:10.723Z,18.30
2022-12-23T02:30:22.391Z,20.50
2022-12-23T02:33:15.305Z,17.80
2022-12-23T02:35:55.877Z,14.70
2022-12-23T02:38:33.407Z,14.90
2022-12-23T02:41:13.766Z,16.50
2022-12-23T02:43:50.183Z,18.80
2022-12-23T02:46:29.241Z,37.80
2022-12-23T02:49:06.142Z,35.10
2022-12-23T02:51:41.800Z,19.50
2022-12-23T02:54:18.722Z,32.70
2022-12-23T02:56:54.911Z,28.20
2022-12-23T02:59:31.993Z,25.50
2022-12-23T03:02:04.515Z,26.40
2022-12-23T03:04:38.402Z,25.80
2022-12-23T03:07:18.748Z,72.90
2022-12-23T03:09:59.651Z,19.70
2022-12-23T03:12:53.159Z,29.40
2022-12-23T03:15:39.786Z,17.80
2022-12-23T03:18:23.003Z,15.40
2022-12-23T03:21:04.710Z,16.50
2022-12-23T03:23:43.223Z,15.70
2022-12-23T03:26:22.516Z,18.50
2022-12-23T03:28:59.642Z,17.60
2022-12-23T03:31:34.701Z,19.40
2022-12-23T03:36:45.930Z,17.00
2022-12-23T03:39:21.241Z,18.90
2022-12-23T03:41:57.609Z,17.80
2022-12-23T03:44:36.664Z,17.10
2022-12-23T03:47:13.880Z,15.80
2022-12-23T03:49:54.159Z,20.10
2022-12-23T03:52:32.317Z,20.70
2022-12-23T03:55:09.094Z,15.80
2022-12-23T03:57:46.530Z,20.10
2022-12-23T04:00:19.319Z,16.00
2022-12-23T04:03:00.733Z,17.10
2022-12-23T04:05:37.662Z,21.40
2022-12-23T04:08:17.275Z,15.10
2022-12-23T04:10:49.995Z,21.40
2022-12-23T04:13:22.379Z,20.60
2022-12-23T04:15:55.274Z,25.70
2022-12-23T04:18:28.313Z,35.70
2022-12-23T04:21:01.037Z,20.10
2022-12-23T04:23:33.441Z,24.30
2022-12-23T04:26:06.065Z,34.70
2022-12-23T04:28:38.411Z,24.50
2022-12-23T04:31:10.801Z,25.10
2022-12-23T04:33:43.260Z,37.70
2022-12-23T04:36:15.606Z,41.00
2022-12-23T04:38:47.884Z,50.20
2022-12-23T04:41:20.261Z,39.60
2022-12-23T04:43:53.362Z,25.00
2022-12-23T04:46:26.076Z,19.60
2022-12-23T04:48:58.547Z,20.10
2022-12-23T04:51:30.844Z,17.80
2022-12-23T04:54:03.273Z,16.60
2022-12-23T04:56:35.592Z,14.80
2022-12-23T04:59:07.950Z,19.40
2022-12-23T05:01:42.379Z,19.60
2022-12-23T05:04:15.599Z,19.60
2022-12-23T05:06:48.004Z,18.60
2022-12-23T05:09:20.989Z,19.90
2022-12-23T05:11:53.463Z,43.10
2022-12-23T05:14:25.844Z,29.50
2022-12-23T05:17:03.582Z,24.80
2022-12-23T05:19:39.522Z,26.90
2022-12-23T05:22:11.891Z,22.50
2022-12-23T05:24:44.244Z,21.30
2022-12-23T05:27:16.560Z,31.00
2022-12-23T05:29:48.985Z,20.20
2022-12-23T05:32:21.463Z,19.10
2022-12-23T05:34:53.780Z,18.60
2022-12-23T05:37:26.154Z,16.90
2022-12-23T05:39:58.629Z,33.00
2022-12-23T05:42:31.053Z,22.40
2022-12-23T05:45:03.533Z,23.40
2022-12-23T05:47:35.951Z,23.50
2022-12-23T05:50:11.547Z,26.30
2022-12-23T05:52:43.934Z,25.90
2022-12-23T05:55:16.387Z,24.50
2022-12-23T05:57:48.726Z,26.50
2022-12-23T06:00:25.493Z,29.80
2022-12-23T06:02:58.172Z,23.10
2022-12-23T06:05:30.690Z,32.10
2022-12-23T06:08:03.020Z,30.70
2022-12-23T06:10:35.391Z,32.60
2022-12-23T06:13:07.614Z,23.10
2022-12-23T06:15:39.888Z,26.30
2022-12-23T06:18:12.313Z,26.80
2022-12-23T06:20:46.202Z,21.20
2022-12-23T06:23:18.547Z,24.30
2022-12-23T06:25:50.921Z,19.00
2022-12-23T06:28:23.292Z,23.20
2022-12-23T06:30:57.186Z,27.10
2022-12-23T06:33:29.579Z,29.70
2022-12-23T06:36:01.946Z,49.40
2022-12-23T06:38:35.122Z,26.70
2022-12-23T06:41:08.860Z,19.90
2022-12-23T06:43:41.248Z,25.70
2022-12-23T06:46:13.776Z,34.10
2022-12-23T06:48:46.269Z,37.10
2022-12-23T06:51:18.718Z,36.00
2022-12-23T06:53:51.173Z,27.20
2022-12-23T06:56:23.540Z,23.90
2022-12-23T06:58:56.121Z,27.40
2022-12-23T07:01:28.674Z,24.50
2022-12-23T07:04:02.045Z,27.30
2022-12-23T07:06:34.502Z,36.60
2022-12-23T07:09:07.510Z,43.20
2022-12-23T07:11:39.965Z,42.20
2022-12-23T07:14:12.918Z,34.50
2022-12-23T07:16:45.453Z,40.80
2022-12-23T07:19:17.891Z,33.50
2022-12-23T07:21:50.290Z,32.60
2022-12-23T07:24:22.669Z,30.10
2022-12-23T07:26:56.075Z,25.70
2022-12-23T07:29:28.614Z,41.60
2022-12-23T07:32:01.994Z,28.00
2022-12-23T07:34:34.766Z,50.40
2022-12-23T07:37:07.065Z,46.20
2022-12-23T07:39:39.718Z,63.80
2022-12-23T07:45:06.156Z,45.80
2022-12-23T07:47:38.555Z,51.20
2022-12-23T07:50:13.118Z,42.70
2022-12-23T07:52:45.647Z,32.40
2022-12-23T07:55:18.229Z,44.50
2022-12-23T07:57:52.516Z,63.00
2022-12-23T08:00:25.493Z,60.90
2022-12-23T08:02:58.030Z,48.60
2022-12-23T08:05:30.704Z,37.60
2022-12-23T08:08:03.195Z,33.00
2022-12-23T08:10:35.590Z,31.70
2022-12-23T08:13:08.012Z,30.20
2022-12-23T08:15:40.359Z,28.80
2022-12-23T08:18:12.707Z,33.20
2022-12-23T08:20:45.159Z,35.20
2022-12-23T08:23:22.958Z,32.60
2022-12-23T08:26:03.951Z,39.00
2022-12-23T08:28:37.252Z,49.00
2022-12-23T08:31:12.489Z,43.70
2022-12-23T08:33:46.706Z,37.80
2022-12-23T08:36:23.304Z,45.70
2022-12-23T08:38:57.696Z,40.30
2022-12-23T08:41:32.496Z,35.50
2022-12-23T08:44:04.988Z,39.60
2022-12-23T08:46:38.144Z,39.50
2022-12-23T08:49:11.916Z,42.70
2022-12-23T08:51:44.634Z,40.00
2022-12-23T08:54:17.566Z,42.10
2022-12-23T08:56:49.959Z,48.10
2022-12-23T08:59:22.376Z,67.60
2022-12-23T09:01:54.822Z,46.90
2022-12-23T09:04:27.320Z,78.60
2022-12-23T09:06:59.873Z,55.00
2022-12-23T09:09:32.226Z,50.20
2022-12-23T09:12:04.777Z,49.60
2022-12-23T09:14:37.317Z,54.30
2022-12-23T09:17:09.721Z,59.20
2022-12-23T09:19:43.746Z,65.90
2022-12-23T09:22:19.625Z,63.10
2022-12-23T09:24:52.175Z,57.40
2022-12-23T09:27:24.527Z,63.10
2022-12-23T09:29:56.923Z,60.70
2022-12-23T09:32:29.307Z,51.30
2022-12-23T09:35:01.631Z,38.60
2022-12-23T09:37:34.028Z,40.80
2022-12-23T09:40:07.196Z,47.90
2022-12-23T09:42:54.863Z,44.60
2022-12-23T09:45:49.787Z,46.50
2022-12-23T09:48:26.799Z,54.50
2022-12-23T09:50:59.421Z,48.00
2022-12-23T09:53:45.953Z,49.20
2022-12-23T09:56:26.767Z,39.90
2022-12-23T09:59:12.509Z,48.40
2022-12-23T10:01:53.882Z,45.30
2022-12-23T10:04:43.168Z,40.20
2022-12-23T10:07:29.303Z,42.70
2022-12-23T10:10:07.418Z,40.60
2022-12-23T10:12:43.349Z,41.00
2022-12-23T10:15:27.288Z,41.80
2022-12-23T10:18:05.391Z,40.80
2022-12-23T10:20:45.652Z,35.30
2022-12-23T10:23:26.858Z,37.90
2022-12-23T10:25:59.385Z,49.50
2022-12-23T10:28:31.756Z,85.30
2022-12-23T10:31:39.203Z,52.00
2022-12-23T10:34:13.521Z,82.70
2022-12-23T10:36:55.078Z,69.40
2022-12-23T10:39:37.750Z,155.90
2022-12-23T10:42:22.542Z,81.90
2022-12-23T10:45:19.501Z,64.40
2022-12-23T10:48:02.099Z,46.00
2022-12-23T10:50:51.527Z,40.30
2022-12-23T10:53:33.524Z,34.10
2022-12-23T10:56:08.669Z,43.40
2022-12-23T11:01:26.195Z,34.20
2022-12-23T11:04:08.641Z,39.00
2022-12-23T11:06:44.930Z,34.60
2022-12-23T11:09:21.476Z,31.50
2022-12-23T11:11:59.946Z,48.00
2022-12-23T11:14:39.283Z,54.20
2022-12-23T11:17:22.634Z,42.90
2022-12-23T11:20:14.270Z,65.30
2022-12-23T11:22:52.421Z,83.80
2022-12-23T11:25:34.930Z,80.70
2022-12-23T11:28:13.809Z,64.00
2022-12-23T11:30:57.185Z,96.80
2022-12-23T11:33:32.736Z,84.90
2022-12-23T11:36:08.673Z,77.90
2022-12-23T11:38:51.922Z,55.20
2022-12-23T11:41:28.105Z,68.90
2022-12-23T11:44:02.881Z,58.30
2022-12-23T11:46:36.461Z,105.40
2022-12-23T11:49:19.688Z,81.50
2022-12-23T11:52:03.113Z,77.00
2022-12-23T11:54:36.003Z,82.00
2022-12-23T11:57:17.724Z,49.00
2022-12-23T11:59:56.444Z,41.90
2022-12-23T12:02:36.707Z,41.50
2022-12-23T12:05:22.925Z,45.00
2022-12-23T12:07:59.754Z,45.50
2022-12-23T12:10:35.611Z,50.80
2022-12-23T12:13:18.017Z,50.20
2022-12-23T12:15:57.943Z,59.40
2022-12-23T12:18:30.908Z,62.00
2022-12-23T12:21:06.916Z,47.60
2022-12-23T12:23:45.422Z,89.50
2022-12-23T12:26:25.150Z,53.60
2022-12-23T12:29:04.251Z,49.10
2022-12-23T12:31:40.901Z,47.60
2022-12-23T12:34:33.427Z,48.90
2022-12-23T12:37:16.959Z,89.80
2022-12-23T12:39:57.623Z,99.10
2022-12-23T12:42:36.498Z,66.90
2022-12-23T12:45:22.146Z,52.30
2022-12-23T12:48:18.741Z,39.40
2022-12-23T12:51:02.414Z,39.40
2022-12-23T12:53:37.192Z,38.40
2022-12-23T12:56:16.558Z,45.80
2022-12-23T12:58:48.877Z,41.70
2022-12-23T13:01:35.631Z,41.50
2022-12-23T13:04:34.221Z,28.10
2022-12-23T13:07:14.612Z,27.50
2022-12-23T13:09:56.734Z,31.60
2022-12-23T13:12:41.010Z,33.50
2022-12-23T13:15:21.688Z,39.70
2022-12-23T13:18:12.942Z,27.80
2022-12-23T13:20:52.461Z,36.20
2022-12-23T13:23:47.865Z,57.70
2022-12-23T13:26:33.951Z,58.60
2022-12-23T13:29:30.977Z,99.30
2022-12-23T13:32:15.145Z,149.80
2022-12-23T13:34:57.190Z,251.40
2022-12-23T13:37:40.688Z,279.40
2022-12-23T13:40:28.770Z,204.90
2022-12-23T13:43:06.901Z,176.10
2022-12-23T13:45:42.784Z,154.70
2022-12-23T13:48:38.073Z,118.90
2022-12-23T13:51:15.444Z,114.50
2022-12-23T13:54:04.177Z,138.60
2022-12-23T13:56:44.100Z,153.10
2022-12-23T13:59:18.279Z,190.80
2022-12-23T14:01:52.899Z,263.90
2022-12-23T14:04:57.797Z,262.70
2022-12-23T14:07:33.114Z,216.70
2022-12-23T14:10:21.780Z,268.30
2022-12-23T14:13:04.077Z,127.70
2022-12-23T14:16:09.518Z,233.40
2022-12-23T14:18:57.481Z,192.30
2022-12-23T14:21:40.388Z,110.60
2022-12-23T14:24:38.810Z,131.80
2022-12-23T14:27:43.006Z,126.70
2022-12-23T14:30:19.222Z,66.40
2022-12-23T14:32:53.894Z,52.20
2022-12-23T14:35:49.265Z,135.40
2022-12-23T14:38:30.231Z,435.70
2022-12-23T14:41:26.208Z,330.90
2022-12-23T14:46:59.224Z,201.80
2022-12-23T14:49:44.175Z,231.80
2022-12-23T14:52:51.007Z,210.70
2022-12-23T14:55:48.124Z,202.90
2022-12-23T14:58:35.112Z,173.20
2022-12-23T15:01:14.221Z,101.80
2022-12-23T15:03:54.599Z,72.50
2022-12-23T15:06:37.871Z,119.50
2022-12-23T15:09:23.733Z,96.00
2022-12-23T15:11:58.789Z,44.00
2022-12-23T15:14:36.631Z,104.10
2022-12-23T15:17:25.843Z,83.70
2022-12-23T15:20:09.356Z,83.40
2022-12-23T15:22:43.401Z,93.10
2022-12-23T15:25:33.639Z,78.80
2022-12-23T15:28:06.757Z,62.20
2022-12-23T15:30:48.368Z,57.80
2022-12-23T15:34:00.545Z,78.70
2022-12-23T15:36:22.722Z,103.00
2022-12-23T15:38:55.133Z,213.50
2022-12-23T15:41:27.811Z,142.30
2022-12-23T15:44:01.950Z,285.90
2022-12-23T15:46:35.416Z,160.90
2022-12-23T15:49:07.954Z,160.00
2022-12-23T15:54:41.619Z,244.90
2022-12-23T15:57:21.398Z,320.00
2022-12-23T15:59:54.569Z,377.40
2022-12-23T16:05:30.834Z,182.70
2022-12-23T16:08:30.180Z,193.20
2022-12-23T16:11:13.776Z,119.30
2022-12-23T16:13:58.780Z,111.70
2022-12-23T16:16:41.617Z,101.80
2022-12-23T16:19:40.487Z,106.20
2022-12-23T16:22:20.773Z,132.70
2022-12-23T16:24:58.109Z,109.60
2022-12-23T16:27:38.741Z,105.00
2022-12-23T16:30:19.375Z,228.10
2022-12-23T16:32:55.261Z,339.90
2022-12-23T16:35:39.852Z,137.90
2022-12-23T16:38:18.488Z,85.30
2022-12-23T16:40:53.132Z,81.50
2022-12-23T16:43:26.545Z,81.80
2022-12-23T16:46:00.072Z,82.30
2022-12-23T16:48:35.618Z,104.10
2022-12-23T16:51:11.864Z,94.20
2022-12-23T16:53:44.167Z,104.10
2022-12-23T16:56:18.031Z,56.70
2022-12-23T16:58:50.507Z,40.10
2022-12-23T17:01:26.051Z,44.40
2022-12-23T17:03:58.679Z,48.60
2022-12-23T17:06:31.565Z,40.30
2022-12-23T17:09:05.137Z,44.10
2022-12-23T17:11:41.442Z,34.00
2022-12-23T17:14:19.630Z,30.50
2022-12-23T17:16:52.914Z,67.00
2022-12-23T17:19:28.789Z,49.10
2022-12-23T17:22:04.584Z,55.70
2022-12-23T17:24:37.283Z,70.30
2022-12-23T17:27:15.704Z,116.70
2022-12-23T17:29:48.290Z,96.60
2022-12-23T17:32:21.222Z,106.30
2022-12-23T17:34:53.677Z,90.90
2022-12-23T17:37:26.105Z,136.40
2022-12-23T17:39:58.666Z,162.30
2022-12-23T17:42:31.951Z,189.10
2022-12-23T17:45:04.596Z,185.10
2022-12-23T17:47:37.053Z,139.20
2022-12-23T17:50:12.578Z,231.30
2022-12-23T17:52:45.014Z,186.10
2022-12-23T17:55:22.959Z,192.90
2022-12-23T17:57:55.632Z,248.70
2022-12-23T18:00:33.967Z,88.30
2022-12-23T18:03:08.347Z,210.50
2022-12-23T18:05:40.739Z,208.80
2022-12-23T18:08:13.111Z,142.90
2022-12-23T18:10:45.921Z,112.70
2022-12-23T18:13:20.702Z,78.50
2022-12-23T18:15:53.149Z,72.20
2022-12-23T18:18:37.783Z,114.70
2022-12-23T18:21:18.533Z,55.60
2022-12-23T18:23:51.576Z,54.30
2022-12-23T18:26:24.026Z,62.90
2022-12-23T18:28:56.417Z,64.60
2022-12-23T18:31:28.950Z,62.70
2022-12-23T18:34:01.430Z,75.80
2022-12-23T18:36:35.052Z,57.70
2022-12-23T18:39:07.583Z,44.80
2022-12-23T18:41:39.978Z,45.10
2022-12-23T18:44:20.691Z,57.50
2022-12-23T18:46:53.727Z,50.00
2022-12-23T18:49:26.151Z,49.50
2022-12-23T18:51:58.527Z,36.80
2022-12-23T18:54:31.085Z,41.70
2022-12-23T18:57:04.361Z,33.20
2022-12-23T18:59:39.053Z,38.10
2022-12-23T19:02:15.411Z,38.30
2022-12-23T19:04:47.797Z,39.50
2022-12-23T19:07:20.164Z,31.50
2022-12-23T19:09:52.537Z,30.10
2022-12-23T19:12:24.997Z,26.50
2022-12-23T19:14:57.435Z,44.60
2022-12-23T19:17:29.811Z,37.90
2022-12-23T19:20:02.196Z,33.40
2022-12-23T19:22:34.639Z,32.00
2022-12-23T19:25:08.512Z,33.50
2022-12-23T19:27:42.118Z,47.80
2022-12-23T19:30:17.433Z,64.20
2022-12-23T19:32:53.368Z,42.10
2022-12-23T19:35:25.721Z,35.10
2022-12-23T19:37:58.089Z,27.10
2022-12-23T19:40:31.305Z,24.90
2022-12-23T19:43:03.977Z,30.10
2022-12-23T19:45:36.540Z,35.60
2022-12-23T19:48:09.133Z,29.50
2022-12-23T19:50:41.515Z,35.90
2022-12-23T19:53:15.251Z,31.10
2022-12-23T19:55:59.086Z,29.90
2022-12-23T19:58:36.071Z,27.50
2022-12-23T20:01:11.248Z,34.50
2022-12-23T20:03:45.318Z,35.30
2022-12-23T20:06:19.638Z,59.30
2022-12-23T20:08:58.048Z,36.30
2022-12-23T20:11:35.972Z,30.70
2022-12-23T20:14:09.156Z,30.80
2022-12-23T20:16:42.187Z,25.10
2022-12-23T20:19:15.043Z,30.40
2022-12-23T20:21:47.775Z,28.90
2022-12-23T20:24:20.149Z,28.60
2022-12-23T20:26:52.547Z,44.00
2022-12-23T20:29:24.846Z,31.90
2022-12-23T20:31:57.246Z,29.40
2022-12-23T20:34:34.717Z,44.50
2022-12-23T20:37:11.930Z,123.90
2022-12-23T20:39:44.321Z,64.50
2022-12-23T20:42:16.678Z,253.80
2022-12-23T20:44:50.932Z,123.50
2022-12-23T20:47:23.334Z,97.90
2022-12-23T20:49:55.682Z,98.60
2022-12-23T20:52:28.087Z,70.90
2022-12-23T20:55:01.787Z,56.60
2022-12-23T20:57:36.024Z,88.60
2022-12-23T21:00:10.213Z,57.20
2022-12-23T21:02:42.840Z,60.00
2022-12-23T21:05:15.387Z,48.60
2022-12-23T21:07:47.900Z,50.40
2022-12-23T21:10:20.609Z,95.80
2022-12-23T21:12:52.981Z,99.70
2022-12-23T21:15:25.428Z,86.90
2022-12-23T21:17:57.805Z,88.20
2022-12-23T21:20:30.153Z,92.50
2022-12-23T21:23:02.598Z,97.20
2022-12-23T21:25:34.970Z,117.80
2022-12-23T21:28:07.602Z,71.80
2022-12-23T21:30:40.025Z,58.70
2022-12-23T21:33:13.856Z,54.50
2022-12-23T21:35:46.945Z,42.00
2022-12-23T21:38:19.352Z,49.50
2022-12-23T21:40:51.694Z,41.20
2022-12-23T21:43:24.050Z,33.80
2022-12-23T21:46:00.382Z,33.20
2022-12-23T21:48:35.955Z,31.20
2022-12-23T21:51:11.414Z,30.90
2022-12-23T21:53:45.027Z,30.30
2022-12-23T21:56:19.625Z,30.10
2022-12-23T21:58:55.481Z,28.30
2022-12-23T22:01:28.703Z,29.40
2022-12-23T22:04:01.212Z,28.20
2022-12-23T22:06:36.681Z,32.40
2022-12-23T22:09:11.653Z,31.30
2022-12-23T22:11:44.913Z,28.30
2022-12-23T22:14:19.139Z,30.60
2022-12-23T22:16:51.561Z,46.80
2022-12-23T22:19:24.067Z,38.30
2022-12-23T22:21:56.596Z,35.00
2022-12-23T22:24:29.326Z,37.60
2022-12-23T22:27:01.776Z,58.40
2022-12-23T22:29:34.329Z,43.10
2022-12-23T22:32:07.201Z,50.80
2022-12-23T22:34:39.634Z,59.70
2022-12-23T22:37:11.877Z,44.60
2022-12-23T22:39:44.226Z,39.50
2022-12-23T22:42:16.624Z,40.00
2022-12-23T22:44:49.029Z,60.80
2022-12-23T22:47:21.627Z,32.20
2022-12-23T22:49:54.030Z,54.60
2022-12-23T22:52:27.166Z,52.50
2022-12-23T22:54:59.513Z,65.30
2022-12-23T22:57:31.885Z,48.60
2022-12-23T23:00:11.881Z,37.50
2022-12-23T23:02:45.081Z,28.60
2022-12-23T23:05:17.969Z,31.30
2022-12-23T23:07:50.471Z,28.70
2022-12-23T23:10:22.868Z,30.40
2022-12-23T23:12:55.246Z,31.20
2022-12-23T23:15:27.613Z,26.60
2022-12-23T23:18:00.115Z,24.70
2022-12-23T23:20:32.512Z,24.80
2022-12-23T23:23:04.907Z,22.20
2022-12-23T23:25:37.334Z,23.70
2022-12-23T23:28:09.815Z,24.30
2022-12-23T23:30:42.720Z,26.60
2022-12-23T23:33:15.119Z,26.40
2022-12-23T23:35:47.489Z,23.90
2022-12-23T23:38:19.894Z,23.60
2022-12-23T23:40:54.620Z,26.20
2022-12-23T23:43:27.221Z,25.50
2022-12-23T23:45:59.769Z,23.20
2022-12-23T23:48:32.223Z,26.20
2022-12-23T23:51:09.199Z,21.80
2022-12-23T23:53:41.688Z,21.30
2022-12-23T23:56:14.163Z,20.90
2022-12-23T23:58:46.506Z,22.00
